createdAt,value
2022-11-07T00:00:32.566Z,10.86
2022-11-07T00:02:08.759Z,10.85
2022-11-07T00:03:46.849Z,10.85
2022-11-07T00:05:19.234Z,10.82
2022-11-07T00:06:50.868Z,10.77
2022-11-07T00:08:32.221Z,10.73
2022-11-07T00:10:04.413Z,10.73
2022-11-07T00:11:36.034Z,10.72
2022-11-07T00:13:08.397Z,10.68
2022-11-07T00:14:51.350Z,10.69
2022-11-07T00:16:25.548Z,10.67
2022-11-07T00:18:00.186Z,10.65
2022-11-07T00:19:35.516Z,10.63
2022-11-07T00:21:13.618Z,10.60
2022-11-07T00:22:51.846Z,10.57
2022-11-07T00:24:24.613Z,10.54
2022-11-07T00:26:04.653Z,10.47
2022-11-07T00:27:39.789Z,10.46
2022-11-07T00:29:19.127Z,10.38
2022-11-07T00:31:01.854Z,10.34
2022-11-07T00:32:44.875Z,10.33
2022-11-07T00:34:22.877Z,10.35
2022-11-07T00:36:19.863Z,10.37
2022-11-07T00:38:09.024Z,10.39
2022-11-07T00:39:53.826Z,10.43
2022-11-07T00:41:32.027Z,10.42
2022-11-07T00:43:11.035Z,10.43
2022-11-07T00:44:48.834Z,10.44
2022-11-07T00:46:27.990Z,10.40
2022-11-07T00:48:08.063Z,10.38
2022-11-07T00:49:45.153Z,10.43
2022-11-07T00:51:24.737Z,10.45
2022-11-07T00:53:04.177Z,10.51
2022-11-07T00:54:37.319Z,10.54
2022-11-07T00:56:16.582Z,10.53
2022-11-07T00:57:51.248Z,10.54
2022-11-07T00:59:30.756Z,10.55
2022-11-07T01:01:12.136Z,10.52
2022-11-07T01:02:43.842Z,10.43
2022-11-07T01:04:34.121Z,10.42
2022-11-07T01:06:05.843Z,10.38
2022-11-07T01:07:54.406Z,10.33
2022-11-07T01:09:30.470Z,10.28
2022-11-07T01:11:18.425Z,10.27
2022-11-07T01:12:57.484Z,10.27
2022-11-07T01:14:33.461Z,10.29
2022-11-07T01:16:23.097Z,10.35
2022-11-07T01:17:55.214Z,10.35
2022-11-07T01:19:26.735Z,10.35
2022-11-07T01:20:58.418Z,10.37
2022-11-07T01:22:30.043Z,10.33
2022-11-07T01:24:03.645Z,10.26
2022-11-07T01:25:38.404Z,10.20
2022-11-07T01:27:10.083Z,10.08
2022-11-07T01:28:42.320Z,10.02
2022-11-07T01:30:14.010Z,9.98
2022-11-07T01:31:45.684Z,9.92
2022-11-07T01:33:17.713Z,9.89
2022-11-07T01:34:49.516Z,9.87
2022-11-07T01:36:21.187Z,9.82
2022-11-07T01:37:53.194Z,9.71
2022-11-07T01:39:25.137Z,9.64
2022-11-07T01:41:15.205Z,9.56
2022-11-07T01:42:47.131Z,9.42
2022-11-07T01:44:18.962Z,9.37
2022-11-07T01:45:50.540Z,9.39
2022-11-07T01:47:22.260Z,9.39
2022-11-07T01:49:01.105Z,9.38
2022-11-07T01:50:32.590Z,9.44
2022-11-07T01:52:07.030Z,9.46
2022-11-07T01:53:38.553Z,9.49
2022-11-07T01:55:36.747Z,9.49
2022-11-07T01:57:09.634Z,9.52
2022-11-07T01:58:42.046Z,9.50
2022-11-07T02:00:14.234Z,9.52
2022-11-07T02:01:45.990Z,9.54
2022-11-07T02:03:17.968Z,9.52
2022-11-07T02:04:49.753Z,9.51
2022-11-07T02:06:23.866Z,9.46
2022-11-07T02:07:56.292Z,9.43
2022-11-07T02:09:27.903Z,9.40
2022-11-07T02:11:00.861Z,9.37
2022-11-07T02:12:32.514Z,9.32
2022-11-07T02:14:41.199Z,9.29
2022-11-07T02:16:12.863Z,9.30
2022-11-07T02:17:44.378Z,9.30
2022-11-07T02:19:31.438Z,9.32
2022-11-07T02:21:24.657Z,9.36
2022-11-07T02:23:06.358Z,9.43
2022-11-07T02:24:38.310Z,9.45
2022-11-07T02:26:09.825Z,9.41
2022-11-07T02:27:41.830Z,9.40
2022-11-07T02:29:13.794Z,9.39
2022-11-07T02:30:48.305Z,9.36
2022-11-07T02:32:29.570Z,9.33
2022-11-07T02:34:02.578Z,9.25
2022-11-07T02:35:45.092Z,9.23
2022-11-07T02:37:21.446Z,9.20
2022-11-07T02:39:02.861Z,9.16
2022-11-07T02:40:37.231Z,9.07
2022-11-07T02:42:16.032Z,8.98
2022-11-07T02:43:56.762Z,8.86
2022-11-07T02:45:42.299Z,8.77
2022-11-07T02:47:18.343Z,8.66
2022-11-07T02:48:54.662Z,8.56
2022-11-07T02:50:31.137Z,8.52
2022-11-07T02:52:10.133Z,8.52
2022-11-07T03:06:57.724Z,8.47
2022-11-07T03:08:29.332Z,8.48
2022-11-07T03:10:00.951Z,8.55
2022-11-07T03:11:32.905Z,8.55
2022-11-07T03:13:04.661Z,8.56
2022-11-07T03:14:36.495Z,8.56
2022-11-07T03:16:08.852Z,8.61
2022-11-07T03:17:41.108Z,8.61
2022-11-07T03:19:12.600Z,8.59
2022-11-07T03:20:44.223Z,8.57
2022-11-07T03:22:15.994Z,8.55
2022-11-07T03:23:48.221Z,8.56
2022-11-07T03:25:19.949Z,8.58
2022-11-07T03:26:52.067Z,8.61
2022-11-07T03:28:24.996Z,8.66
2022-11-07T03:29:56.566Z,8.69
2022-11-07T03:31:28.353Z,8.71
2022-11-07T03:33:00.007Z,8.72
2022-11-07T03:34:31.873Z,8.75
2022-11-07T03:36:03.438Z,8.78
2022-11-07T03:37:35.074Z,8.77
2022-11-07T03:39:06.765Z,8.72
2022-11-07T03:40:38.306Z,8.69
2022-11-07T03:42:09.867Z,8.71
2022-11-07T03:43:41.365Z,8.73
2022-11-07T03:45:13.616Z,8.73
2022-11-07T03:46:45.151Z,8.78
2022-11-07T03:48:16.869Z,8.80
2022-11-07T03:49:48.372Z,8.86
2022-11-07T03:51:26.776Z,8.94
2022-11-07T03:53:02.717Z,9.02
2022-11-07T03:54:49.089Z,9.08
2022-11-07T03:56:27.633Z,9.04
2022-11-07T04:00:32.320Z,8.83
2022-11-07T04:02:15.403Z,8.79
2022-11-07T04:03:56.807Z,8.77
2022-11-07T04:05:41.350Z,8.73
2022-11-07T04:07:21.230Z,8.67
2022-11-07T04:09:00.266Z,8.63
2022-11-07T04:21:47.448Z,8.56
2022-11-07T04:23:19.380Z,8.53
2022-11-07T04:24:50.981Z,8.50
2022-11-07T04:26:41.263Z,8.45
2022-11-07T04:28:14.118Z,8.33
2022-11-07T04:29:45.638Z,8.26
2022-11-07T04:31:17.181Z,8.22
2022-11-07T04:32:49.595Z,8.18
2022-11-07T04:34:21.109Z,8.13
2022-11-07T04:35:52.700Z,8.10
2022-11-07T04:37:24.354Z,8.09
2022-11-07T04:38:55.876Z,8.11
2022-11-07T04:40:27.940Z,8.15
2022-11-07T04:41:59.655Z,8.19
2022-11-07T04:43:31.145Z,8.21
2022-11-07T04:45:02.714Z,8.24
2022-11-07T04:46:34.458Z,8.24
2022-11-07T04:48:06.146Z,8.27
2022-11-07T04:49:37.944Z,8.31
2022-11-07T04:51:13.726Z,8.33
2022-11-07T04:52:46.023Z,8.37
2022-11-07T04:54:17.719Z,8.40
2022-11-07T04:55:49.385Z,8.42
2022-11-07T04:57:21.032Z,8.43
2022-11-07T04:58:52.642Z,8.40
2022-11-07T05:00:24.528Z,8.38
2022-11-07T05:01:56.210Z,8.36
2022-11-07T05:03:27.907Z,8.35
2022-11-07T05:04:59.545Z,8.33
2022-11-07T05:06:32.312Z,8.32
2022-11-07T05:08:03.911Z,8.36
2022-11-07T05:09:35.605Z,8.40
2022-11-07T05:11:07.210Z,8.45
2022-11-07T05:12:38.842Z,8.49
2022-11-07T05:14:10.545Z,8.54
2022-11-07T05:15:42.040Z,8.56
2022-11-07T05:17:14.486Z,8.58
2022-11-07T05:18:45.987Z,8.62
2022-11-07T05:20:28.451Z,8.63
2022-11-07T05:22:23.038Z,8.65
2022-11-07T05:23:54.570Z,8.76
2022-11-07T05:25:26.272Z,8.83
2022-11-07T05:26:57.914Z,8.85
2022-11-07T05:28:38.605Z,8.86
2022-11-07T05:30:11.407Z,8.86
2022-11-07T05:31:43.032Z,8.86
2022-11-07T05:33:15.697Z,8.87
2022-11-07T05:34:47.422Z,8.87
2022-11-07T05:36:19.680Z,8.90
2022-11-07T05:37:51.227Z,8.90
2022-11-07T05:39:23.709Z,8.94
2022-11-07T05:40:55.287Z,9.01
2022-11-07T05:42:26.857Z,9.05
2022-11-07T05:43:58.500Z,9.08
2022-11-07T05:45:30.209Z,9.09
2022-11-07T05:47:01.839Z,9.12
2022-11-07T05:48:33.477Z,9.16
2022-11-07T05:50:05.261Z,9.17
2022-11-07T05:51:36.840Z,9.20
2022-11-07T05:53:08.522Z,9.25
2022-11-07T05:54:40.212Z,9.36
2022-11-07T05:56:11.873Z,9.46
2022-11-07T05:57:43.512Z,9.56
2022-11-07T05:59:15.290Z,9.66
2022-11-07T06:00:47.138Z,9.74
2022-11-07T06:02:18.847Z,9.81
2022-11-07T06:03:50.543Z,9.87
2022-11-07T06:05:24.369Z,9.93
2022-11-07T06:06:56.137Z,10.00
2022-11-07T06:08:27.636Z,10.06
2022-11-07T06:09:59.493Z,10.11
2022-11-07T06:11:36.110Z,10.14
2022-11-07T06:13:15.789Z,10.20
2022-11-07T06:19:25.794Z,10.30
2022-11-07T06:20:57.444Z,10.32
2022-11-07T06:22:29.894Z,10.36
2022-11-07T06:24:01.438Z,10.42
2022-11-07T06:25:33.206Z,10.45
2022-11-07T06:27:04.899Z,10.49
2022-11-07T06:28:36.643Z,10.52
2022-11-07T06:30:08.670Z,10.55
2022-11-07T06:31:40.204Z,10.60
2022-11-07T06:33:13.302Z,10.66
2022-11-07T06:34:45.500Z,10.71
2022-11-07T06:36:17.533Z,10.76
2022-11-07T06:37:49.181Z,10.81
2022-11-07T06:39:20.880Z,10.88
2022-11-07T06:40:52.449Z,10.93
2022-11-07T06:42:25.606Z,10.99
2022-11-07T06:43:57.141Z,11.01
2022-11-07T06:45:28.913Z,11.07
2022-11-07T06:47:00.482Z,11.14
2022-11-07T06:48:32.171Z,11.17
2022-11-07T06:50:04.038Z,11.23
2022-11-07T06:51:35.635Z,11.30
2022-11-07T06:53:07.942Z,11.38
2022-11-07T06:54:39.797Z,11.47
2022-11-07T06:56:14.060Z,11.55
2022-11-07T06:57:45.619Z,11.64
2022-11-07T06:59:17.209Z,11.75
2022-11-07T07:00:49.069Z,11.81
2022-11-07T07:02:44.188Z,11.87
2022-11-07T07:04:12.255Z,11.97
2022-11-07T07:05:43.948Z,12.06
2022-11-07T07:07:15.482Z,12.18
2022-11-07T07:08:48.294Z,12.26
2022-11-07T07:10:20.325Z,12.37
2022-11-07T07:11:52.062Z,12.42
2022-11-07T07:13:23.626Z,12.49
2022-11-07T07:14:55.206Z,12.52
2022-11-07T07:16:26.852Z,12.56
2022-11-07T07:18:01.496Z,12.61
2022-11-07T07:19:33.107Z,12.72
2022-11-07T07:21:06.147Z,12.84
2022-11-07T07:22:37.774Z,12.98
2022-11-07T07:24:09.630Z,13.09
2022-11-07T07:25:41.354Z,13.19
2022-11-07T07:27:12.930Z,13.25
2022-11-07T07:28:44.730Z,13.26
2022-11-07T07:30:16.310Z,13.23
2022-11-07T07:31:48.129Z,13.26
2022-11-07T07:33:20.505Z,13.25
2022-11-07T07:34:52.469Z,13.24
2022-11-07T07:36:24.232Z,13.29
2022-11-07T07:37:55.876Z,13.39
2022-11-07T07:39:28.373Z,13.54
2022-11-07T07:41:00.135Z,13.64
2022-11-07T07:42:32.004Z,13.58
2022-11-07T07:44:03.684Z,13.54
2022-11-07T07:45:35.269Z,13.57
2022-11-07T07:47:11.045Z,13.61
2022-11-07T07:48:43.004Z,13.65
2022-11-07T07:50:14.843Z,13.76
2022-11-07T07:51:46.492Z,13.82
2022-11-07T07:53:18.410Z,13.89
2022-11-07T07:54:50.139Z,13.95
2022-11-07T07:56:21.919Z,13.97
2022-11-07T07:57:54.070Z,13.97
2022-11-07T07:59:25.734Z,13.98
2022-11-07T08:01:00.004Z,14.03
2022-11-07T08:02:31.975Z,14.06
2022-11-07T08:04:03.658Z,14.03
2022-11-07T08:05:35.472Z,14.01
2022-11-07T08:07:07.043Z,14.03
2022-11-07T08:08:38.813Z,14.06
2022-11-07T08:10:39.741Z,14.11
2022-11-07T08:12:02.953Z,14.12
2022-11-07T08:13:34.468Z,14.13
2022-11-07T08:15:06.388Z,14.21
2022-11-07T08:16:38.023Z,14.31
2022-11-07T08:18:09.656Z,14.45
2022-11-07T08:19:41.336Z,14.59
2022-11-07T08:21:12.957Z,14.69
2022-11-07T08:22:44.556Z,14.76
2022-11-07T08:24:17.375Z,14.83
2022-11-07T08:25:52.843Z,14.87
2022-11-07T08:27:24.438Z,14.89
2022-11-07T08:28:56.279Z,14.94
2022-11-07T08:30:28.750Z,14.93
2022-11-07T08:32:00.727Z,14.96
2022-11-07T08:33:32.563Z,14.98
2022-11-07T08:35:04.384Z,14.98
2022-11-07T08:36:36.189Z,14.95
2022-11-07T08:38:07.804Z,15.00
2022-11-07T08:39:39.350Z,15.03
2022-11-07T08:41:11.381Z,15.07
2022-11-07T08:42:42.945Z,15.14
2022-11-07T08:44:14.542Z,15.31
2022-11-07T08:45:46.367Z,15.46
2022-11-07T08:47:18.571Z,15.55
2022-11-07T08:48:50.172Z,15.65
2022-11-07T08:50:21.838Z,15.78
2022-11-07T08:51:53.426Z,15.85
2022-11-07T08:53:25.716Z,15.90
2022-11-07T08:54:57.465Z,16.05
2022-11-07T08:56:29.861Z,16.19
2022-11-07T08:58:01.919Z,16.34
2022-11-07T08:59:33.550Z,16.50
2022-11-07T09:01:05.954Z,16.68
2022-11-07T09:04:29.443Z,16.88
2022-11-07T09:06:01.122Z,16.88
2022-11-07T09:07:33.279Z,16.96
2022-11-07T09:09:04.969Z,17.04
2022-11-07T09:10:36.577Z,17.19
2022-11-07T09:12:08.668Z,17.30
2022-11-07T09:13:40.392Z,17.43
2022-11-07T09:15:12.035Z,17.58
2022-11-07T09:16:43.694Z,17.67
2022-11-07T09:18:15.333Z,17.73
2022-11-07T09:19:46.988Z,17.87
2022-11-07T09:21:22.394Z,17.93
2022-11-07T09:22:58.109Z,18.08
2022-11-07T09:24:30.468Z,18.13
2022-11-07T09:26:02.041Z,18.18
2022-11-07T09:27:33.948Z,18.19
2022-11-07T09:29:05.537Z,18.26
2022-11-07T09:30:37.173Z,18.33
2022-11-07T09:32:30.820Z,18.38
2022-11-07T09:34:00.769Z,18.45
2022-11-07T09:35:33.089Z,18.48
2022-11-07T09:37:04.907Z,18.56
2022-11-07T09:38:36.749Z,18.62
2022-11-07T09:40:34.697Z,18.60
2022-11-07T09:42:09.007Z,18.57
2022-11-07T09:43:59.442Z,18.50
2022-11-07T09:45:31.033Z,18.51
2022-11-07T09:47:28.773Z,18.56
2022-11-07T09:49:16.881Z,18.68
2022-11-07T09:50:49.375Z,18.78
2022-11-07T09:52:58.471Z,18.77
2022-11-07T09:54:31.701Z,18.77
2022-11-07T09:56:06.961Z,18.86
2022-11-07T09:57:38.745Z,18.97
2022-11-07T09:59:36.786Z,19.11
2022-11-07T10:01:12.039Z,19.17
2022-11-07T10:02:46.884Z,19.33
2022-11-07T10:04:26.814Z,19.43
2022-11-07T10:05:58.901Z,19.46
2022-11-07T10:07:45.844Z,19.57
2022-11-07T10:09:20.271Z,19.61
2022-11-07T10:11:21.178Z,19.74
2022-11-07T10:13:06.041Z,19.98
2022-11-07T10:14:50.058Z,20.13
2022-11-07T10:16:33.413Z,20.24
2022-11-07T10:18:18.231Z,20.32
2022-11-07T10:19:59.355Z,20.40
2022-11-07T10:21:51.445Z,20.44
2022-11-07T10:23:28.423Z,20.54
2022-11-07T10:25:18.808Z,20.57
2022-11-07T10:26:50.785Z,20.60
2022-11-07T10:28:22.486Z,20.63
2022-11-07T10:29:55.168Z,20.63
2022-11-07T10:31:53.007Z,20.58
2022-11-07T10:33:28.188Z,20.49
2022-11-07T10:35:00.708Z,20.45
2022-11-07T10:36:32.468Z,20.41
2022-11-07T10:38:14.683Z,20.42
2022-11-07T10:39:46.289Z,20.46
2022-11-07T10:41:19.099Z,20.59
2022-11-07T10:42:51.284Z,20.69
2022-11-07T10:44:28.787Z,20.74
2022-11-07T10:46:01.562Z,20.86
2022-11-07T10:47:33.152Z,21.03
2022-11-07T10:49:13.479Z,21.10
2022-11-07T10:50:52.065Z,21.23
2022-11-07T10:52:25.148Z,21.34
2022-11-07T10:53:59.291Z,21.45
2022-11-07T10:55:32.300Z,21.58
2022-11-07T10:57:05.241Z,21.69
2022-11-07T10:58:36.959Z,21.76
2022-11-07T11:00:40.886Z,21.86
2022-11-07T11:02:30.977Z,21.96
2022-11-07T11:04:03.149Z,22.07
2022-11-07T11:05:44.369Z,22.09
2022-11-07T11:07:20.948Z,22.09
2022-11-07T11:08:55.997Z,22.11
2022-11-07T11:10:29.899Z,22.08
2022-11-07T11:12:10.440Z,22.04
2022-11-07T11:13:42.017Z,22.19
2022-11-07T11:15:14.671Z,22.23
2022-11-07T11:16:49.346Z,22.20
2022-11-07T11:18:21.502Z,22.14
2022-11-07T11:19:53.964Z,22.07
2022-11-07T11:21:25.836Z,22.14
2022-11-07T11:22:58.108Z,22.18
2022-11-07T11:24:29.724Z,22.27
2022-11-07T11:26:08.156Z,22.35
2022-11-07T11:27:40.245Z,22.38
2022-11-07T11:29:24.468Z,22.39
2022-11-07T11:30:58.076Z,22.43
2022-11-07T11:32:40.225Z,22.51
2022-11-07T11:34:19.247Z,22.64
2022-11-07T11:35:56.097Z,22.82
2022-11-07T11:37:28.111Z,22.97
2022-11-07T11:38:59.682Z,23.05
2022-11-07T11:40:33.227Z,23.12
2022-11-07T11:42:05.585Z,23.08
2022-11-07T11:43:57.657Z,23.08
2022-11-07T11:45:35.099Z,23.06
2022-11-07T11:47:12.714Z,23.01
2022-11-07T11:48:45.298Z,22.96
2022-11-07T11:50:22.471Z,22.94
2022-11-07T11:51:54.739Z,22.94
2022-11-07T11:53:26.847Z,22.95
2022-11-07T11:54:59.208Z,22.93
2022-11-07T11:56:42.695Z,22.89
2022-11-07T11:58:24.740Z,22.87
2022-11-07T11:59:59.430Z,22.81
2022-11-07T12:01:50.610Z,22.81
2022-11-07T12:03:48.494Z,22.79
2022-11-07T12:05:38.661Z,22.85
2022-11-07T12:07:13.266Z,22.86
2022-11-07T12:08:48.266Z,22.87
2022-11-07T12:10:26.281Z,22.97
2022-11-07T12:11:57.809Z,23.01
2022-11-07T12:13:33.362Z,23.01
2022-11-07T12:15:05.402Z,23.09
2022-11-07T12:16:40.205Z,23.03
2022-11-07T12:18:17.399Z,22.89
2022-11-07T12:19:58.319Z,22.83
2022-11-07T12:21:29.944Z,22.80
2022-11-07T12:23:13.885Z,22.89
2022-11-07T12:24:45.697Z,22.86
2022-11-07T12:26:21.422Z,22.87
2022-11-07T12:27:53.011Z,22.91
2022-11-07T12:29:45.495Z,22.98
2022-11-07T12:31:23.755Z,23.06
2022-11-07T12:33:21.645Z,23.17
2022-11-07T12:35:05.046Z,23.23
2022-11-07T12:36:46.065Z,23.30
2022-11-07T12:38:27.765Z,23.33
2022-11-07T12:40:03.849Z,23.34
2022-11-07T12:41:56.606Z,23.34
2022-11-07T12:43:31.248Z,23.35
2022-11-07T12:45:09.984Z,23.31
2022-11-07T12:46:51.131Z,23.27
2022-11-07T12:48:35.291Z,23.24
2022-11-07T12:50:25.217Z,23.28
2022-11-07T12:52:05.251Z,23.26
2022-11-07T12:53:36.862Z,23.13
2022-11-07T12:55:14.833Z,23.00
2022-11-07T12:56:46.729Z,23.07
2022-11-07T12:58:20.718Z,23.09
2022-11-07T12:59:57.418Z,23.09
2022-11-07T13:01:31.413Z,23.02
2022-11-07T13:03:18.283Z,23.04
2022-11-07T13:05:10.474Z,23.05
2022-11-07T13:06:49.225Z,23.02
2022-11-07T13:08:29.782Z,23.03
2022-11-07T13:10:19.167Z,23.03
2022-11-07T13:12:26.115Z,22.97
2022-11-07T13:14:06.704Z,22.84
2022-11-07T13:16:08.888Z,22.82
2022-11-07T13:17:40.518Z,22.78
2022-11-07T13:19:21.272Z,22.83
2022-11-07T13:21:05.672Z,22.81
2022-11-07T13:22:40.550Z,22.84
2022-11-07T13:24:19.150Z,22.84
2022-11-07T13:25:57.489Z,22.81
2022-11-07T13:27:32.736Z,22.84
2022-11-07T13:29:04.703Z,22.88
2022-11-07T13:30:37.137Z,22.89
2022-11-07T13:32:09.253Z,22.87
2022-11-07T13:47:14.120Z,21.92
2022-11-07T13:48:49.849Z,21.91
2022-11-07T13:50:23.106Z,21.94
2022-11-07T13:51:56.660Z,21.97
2022-11-07T13:53:33.906Z,22.00
2022-11-07T13:55:12.965Z,22.00
2022-11-07T13:57:02.949Z,21.98
2022-11-07T13:58:34.995Z,21.88
2022-11-07T14:00:07.229Z,21.81
2022-11-07T14:01:43.047Z,21.74
2022-11-07T14:03:24.835Z,21.69
2022-11-07T14:06:49.526Z,21.55
2022-11-07T14:08:31.538Z,21.52
2022-11-07T14:10:03.808Z,21.47
2022-11-07T14:11:35.467Z,21.40
2022-11-07T14:13:08.127Z,21.35
2022-11-07T14:14:39.896Z,21.30
2022-11-07T14:16:32.732Z,21.22
2022-11-07T14:18:04.370Z,21.13
2022-11-07T14:19:35.976Z,21.07
2022-11-07T14:21:17.705Z,20.97
2022-11-07T14:22:53.699Z,20.83
2022-11-07T14:24:29.099Z,20.74
2022-11-07T14:26:16.555Z,20.67
2022-11-07T14:27:48.122Z,20.61
2022-11-07T14:29:22.786Z,20.54
2022-11-07T14:30:54.454Z,20.47
2022-11-07T14:32:31.646Z,20.43
2022-11-07T14:34:05.330Z,20.38
2022-11-07T14:35:36.950Z,20.33
2022-11-07T14:37:12.108Z,20.29
2022-11-07T14:38:48.079Z,20.25
2022-11-07T14:40:20.036Z,20.23
2022-11-07T14:41:52.037Z,20.20
2022-11-07T14:43:23.913Z,20.16
2022-11-07T14:44:56.391Z,20.13
2022-11-07T14:46:28.893Z,20.11
2022-11-07T14:48:00.576Z,20.08
2022-11-07T14:49:39.790Z,20.04
2022-11-07T14:51:15.046Z,19.98
2022-11-07T14:52:49.529Z,19.90
2022-11-07T14:54:21.618Z,19.84
2022-11-07T14:55:54.230Z,19.76
2022-11-07T14:57:25.874Z,19.68
2022-11-07T14:58:57.518Z,19.62
2022-11-07T15:00:29.365Z,19.53
2022-11-07T15:02:13.322Z,19.47
2022-11-07T15:03:52.292Z,19.42
2022-11-07T15:05:27.201Z,19.36
2022-11-07T15:06:59.003Z,19.31
2022-11-07T15:08:30.596Z,19.26
2022-11-07T15:10:12.544Z,19.21
2022-11-07T15:11:54.650Z,19.14
2022-11-07T15:13:26.549Z,19.06
2022-11-07T15:15:06.958Z,19.00
2022-11-07T15:16:40.962Z,18.85
2022-11-07T15:18:19.541Z,18.67
2022-11-07T15:20:01.453Z,18.49
2022-11-07T15:21:34.093Z,18.33
2022-11-07T15:23:07.197Z,18.19
2022-11-07T15:24:45.940Z,18.06
2022-11-07T15:26:21.327Z,17.96
2022-11-07T15:27:53.145Z,17.93
2022-11-07T15:29:25.379Z,17.86
2022-11-07T15:31:00.118Z,17.77
2022-11-07T15:32:35.273Z,17.66
2022-11-07T15:34:09.643Z,17.57
2022-11-07T15:35:44.688Z,17.48
2022-11-07T15:37:20.178Z,17.37
2022-11-07T15:38:51.954Z,17.31
2022-11-07T15:40:24.175Z,17.22
2022-11-07T15:41:55.841Z,17.09
2022-11-07T15:43:27.485Z,17.02
2022-11-07T15:44:59.162Z,16.96
2022-11-07T15:46:40.057Z,16.87
2022-11-07T15:48:15.017Z,16.78
2022-11-07T15:49:47.453Z,16.72
2022-11-07T15:51:19.109Z,16.64
2022-11-07T15:52:50.757Z,16.59
2022-11-07T15:54:22.328Z,16.54
2022-11-07T15:55:57.666Z,16.50
2022-11-07T15:57:29.884Z,16.42
2022-11-07T15:59:01.641Z,16.37
2022-11-07T16:00:33.804Z,16.33
2022-11-07T16:02:05.513Z,16.27
2022-11-07T16:03:37.207Z,16.22
2022-11-07T16:05:08.992Z,16.15
2022-11-07T16:06:45.771Z,16.11
2022-11-07T16:08:18.876Z,16.06
2022-11-07T16:09:50.618Z,16.01
2022-11-07T16:11:22.284Z,16.00
2022-11-07T16:12:53.954Z,15.96
2022-11-07T16:16:24.462Z,15.86
2022-11-07T16:17:56.036Z,15.82
2022-11-07T16:19:28.940Z,15.81
2022-11-07T16:21:00.897Z,15.79
2022-11-07T16:22:33.077Z,15.79
2022-11-07T16:24:04.837Z,15.77
2022-11-07T16:25:36.866Z,15.74
2022-11-07T16:27:09.624Z,15.72
2022-11-07T16:28:41.289Z,15.67
2022-11-07T16:30:15.907Z,15.60
2022-11-07T16:31:47.498Z,15.60
2022-11-07T16:33:19.267Z,15.58
2022-11-07T16:34:50.906Z,15.56
2022-11-07T16:36:26.469Z,15.54
2022-11-07T16:37:58.876Z,15.51
2022-11-07T16:39:31.836Z,15.51
2022-11-07T16:41:03.630Z,15.50
2022-11-07T16:42:35.316Z,15.49
2022-11-07T16:44:07.251Z,15.47
2022-11-07T16:45:39.803Z,15.44
2022-11-07T16:47:15.392Z,15.41
2022-11-07T16:48:58.014Z,15.42
2022-11-07T16:50:29.598Z,15.41
2022-11-07T16:52:01.269Z,15.41
2022-11-07T16:53:32.822Z,15.38
2022-11-07T16:55:04.663Z,15.34
2022-11-07T16:56:36.631Z,15.32
2022-11-07T16:58:14.382Z,15.32
2022-11-07T16:59:46.479Z,15.31
2022-11-07T17:01:18.041Z,15.33
2022-11-07T17:02:50.093Z,15.31
2022-11-07T17:04:21.809Z,15.25
2022-11-07T17:05:53.983Z,15.21
2022-11-07T17:07:25.622Z,15.22
2022-11-07T17:09:05.859Z,15.23
2022-11-07T17:10:40.538Z,15.20
2022-11-07T17:12:12.502Z,15.15
2022-11-07T17:13:44.820Z,15.09
2022-11-07T17:15:16.642Z,15.04
2022-11-07T17:16:48.294Z,15.02
2022-11-07T17:18:23.215Z,15.01
2022-11-07T17:19:54.854Z,15.00
2022-11-07T17:21:27.583Z,14.98
2022-11-07T17:22:59.217Z,14.99
2022-11-07T17:24:31.120Z,14.99
2022-11-07T17:26:02.760Z,15.00
2022-11-07T17:27:34.347Z,15.00
2022-11-07T17:29:06.693Z,14.97
2022-11-07T17:30:38.377Z,14.97
2022-11-07T17:32:10.052Z,15.04
2022-11-07T17:33:41.703Z,15.10
2022-11-07T17:37:05.757Z,15.11
2022-11-07T17:38:37.498Z,15.06
2022-11-07T17:40:10.534Z,15.06
2022-11-07T17:41:42.556Z,15.07
2022-11-07T17:43:14.752Z,15.09
2022-11-07T17:44:49.035Z,15.09
2022-11-07T17:46:21.641Z,15.09
2022-11-07T17:47:53.332Z,15.08
2022-11-07T17:49:25.552Z,15.08
2022-11-07T17:50:57.681Z,15.04
2022-11-07T17:52:30.569Z,15.02
2022-11-07T17:54:02.391Z,14.97
2022-11-07T17:55:34.674Z,14.96
2022-11-07T17:57:09.142Z,14.97
2022-11-07T17:58:40.968Z,14.95
2022-11-07T18:00:17.692Z,14.92
2022-11-07T18:01:52.420Z,14.93
2022-11-07T18:03:24.116Z,14.94
2022-11-07T18:04:56.343Z,14.93
2022-11-07T18:06:28.055Z,14.93
2022-11-07T18:08:00.266Z,14.95
2022-11-07T18:09:32.470Z,14.96
2022-11-07T18:11:04.389Z,15.02
2022-11-07T18:12:35.928Z,15.06
2022-11-07T18:14:08.049Z,15.05
2022-11-07T18:15:39.893Z,15.08
2022-11-07T18:17:11.818Z,15.12
2022-11-07T18:18:43.773Z,15.15
2022-11-07T18:20:15.462Z,15.20
2022-11-07T18:21:47.418Z,15.25
2022-11-07T18:23:19.008Z,15.30
2022-11-07T18:24:51.108Z,15.35
2022-11-07T18:26:30.442Z,15.39
2022-11-07T18:28:02.015Z,15.41
2022-11-07T18:29:33.601Z,15.41
2022-11-07T18:31:09.410Z,15.42
2022-11-07T18:32:40.961Z,15.39
2022-11-07T18:34:12.898Z,15.38
2022-11-07T18:35:44.486Z,15.41
2022-11-07T18:37:16.342Z,15.41
2022-11-07T18:38:49.027Z,15.40
2022-11-07T18:40:21.322Z,15.35
2022-11-07T18:41:54.202Z,15.31
2022-11-07T18:43:25.859Z,15.29
2022-11-07T18:44:57.495Z,15.27
2022-11-07T18:46:29.144Z,15.27
2022-11-07T18:48:00.929Z,15.26
2022-11-07T18:49:32.539Z,15.25
2022-11-07T18:51:05.622Z,15.20
2022-11-07T18:52:37.230Z,15.18
2022-11-07T18:54:09.577Z,15.18
2022-11-07T18:55:41.232Z,15.19
2022-11-07T18:57:12.917Z,15.17
2022-11-07T18:58:45.163Z,15.14
2022-11-07T19:00:16.852Z,15.05
2022-11-07T19:01:49.353Z,14.97
2022-11-07T19:03:25.278Z,14.90
2022-11-07T19:04:56.912Z,14.82
2022-11-07T19:06:29.270Z,14.73
2022-11-07T19:08:00.836Z,14.69
2022-11-07T19:09:32.934Z,14.64
2022-11-07T19:11:05.332Z,14.61
2022-11-07T19:12:36.860Z,14.58
2022-11-07T19:14:08.834Z,14.56
2022-11-07T19:15:40.959Z,14.51
2022-11-07T19:17:12.592Z,14.45
2022-11-07T19:18:49.087Z,14.39
2022-11-07T19:20:21.410Z,14.40
2022-11-07T19:21:53.377Z,14.42
2022-11-07T19:23:25.061Z,14.43
2022-11-07T19:24:56.637Z,14.44
2022-11-07T19:26:28.248Z,14.41
2022-11-07T19:28:00.270Z,14.41
2022-11-07T19:29:32.083Z,14.41
2022-11-07T19:31:04.198Z,14.39
2022-11-07T19:32:35.929Z,14.37
2022-11-07T19:34:07.725Z,14.37
2022-11-07T19:35:40.101Z,14.36
2022-11-07T19:37:12.155Z,14.35
2022-11-07T19:38:44.493Z,14.31
2022-11-07T19:40:16.138Z,14.26
2022-11-07T19:41:47.786Z,14.21
2022-11-07T19:43:19.537Z,14.15
2022-11-07T19:44:56.481Z,14.14
2022-11-07T19:46:28.361Z,14.09
2022-11-07T19:47:59.911Z,14.06
2022-11-07T19:49:31.624Z,14.05
2022-11-07T19:51:11.122Z,14.05
2022-11-07T19:52:42.979Z,14.04
2022-11-07T19:54:14.498Z,14.04
2022-11-07T19:55:46.470Z,14.06
2022-11-07T19:57:18.506Z,14.08
2022-11-07T19:58:50.051Z,14.09
2022-11-07T20:00:21.849Z,14.10
2022-11-07T20:02:17.687Z,14.11
2022-11-07T20:03:46.093Z,14.10
2022-11-07T20:05:24.387Z,14.07
2022-11-07T20:06:56.165Z,14.08
2022-11-07T20:08:27.796Z,14.12
2022-11-07T20:10:01.758Z,14.14
2022-11-07T20:11:33.955Z,14.16
2022-11-07T20:13:05.766Z,14.16
2022-11-07T20:14:37.675Z,14.20
2022-11-07T20:16:09.428Z,14.23
2022-11-07T20:17:41.003Z,14.23
2022-11-07T20:19:12.648Z,14.20
2022-11-07T20:20:44.337Z,14.19
2022-11-07T20:22:15.859Z,14.17
2022-11-07T20:23:47.917Z,14.16
2022-11-07T20:25:19.436Z,14.20
2022-11-07T20:26:51.138Z,14.22
2022-11-07T20:28:22.957Z,14.20
2022-11-07T20:29:56.847Z,14.22
2022-11-07T20:31:29.878Z,14.26
2022-11-07T20:33:01.491Z,14.28
2022-11-07T20:34:33.242Z,14.26
2022-11-07T20:36:05.932Z,14.28
2022-11-07T20:37:37.503Z,14.27
2022-11-07T20:39:10.145Z,14.26
2022-11-07T20:40:42.338Z,14.23
2022-11-07T20:42:14.153Z,14.21
2022-11-07T20:43:46.111Z,14.19
2022-11-07T20:45:21.135Z,14.12
2022-11-07T20:46:52.892Z,14.04
2022-11-07T20:48:24.819Z,13.97
2022-11-07T20:49:56.335Z,13.95
2022-11-07T20:51:28.000Z,13.95
2022-11-07T20:53:00.323Z,13.90
2022-11-07T20:54:32.109Z,13.85
2022-11-07T20:56:05.432Z,13.80
2022-11-07T20:57:37.058Z,13.75
2022-11-07T20:59:09.643Z,13.72
2022-11-07T21:00:41.467Z,13.69
2022-11-07T21:02:13.239Z,13.66
2022-11-07T21:03:44.962Z,13.67
2022-11-07T21:05:18.794Z,13.67
2022-11-07T21:06:50.479Z,13.68
2022-11-07T21:08:21.953Z,13.71
2022-11-07T21:09:53.899Z,13.73
2022-11-07T21:11:25.703Z,13.71
2022-11-07T21:12:57.389Z,13.69
2022-11-07T21:14:29.146Z,13.71
2022-11-07T21:16:00.711Z,13.71
2022-11-07T21:17:32.642Z,13.70
2022-11-07T21:19:05.611Z,13.71
2022-11-07T21:20:37.563Z,13.68